Time;durP1;ratioP1;P1;durP2;ratioP2;P2;SDS_P1;SDS_P2;PMS_P1;PMS_P2;Temp;Humidity;BMP_temperature;BMP_pressure;BME280_temperature;BME280_humidity;BME280_pressure;Samples;Min_cycle;Max_cycle;Signal;HPM_P1;HPM_P2
2021/11/22 00:01:51;;;;;;;47.47;17.98;;;;;;;9.09;80.71;100369.19;4977928;28;20054;-80
2021/11/22 00:04:35;;;;;;;58.30;23.02;;;;;;;9.07;80.00;100358.66;4981360;28;20042;-80
2021/11/22 00:07:20;;;;;;;38.63;16.05;;;;;;;9.04;80.24;100361.97;4978187;28;20046;-80
2021/11/22 00:10:06;;;;;;;49.55;18.02;;;;;;;9.04;79.83;100361.22;4972603;28;20047;-80
2021/11/22 00:12:51;;;;;;;50.80;24.55;;;;;;;9.14;80.22;100361.72;4961958;28;20047;-81
2021/11/22 00:15:36;;;;;;;41.70;18.23;;;;;;;9.17;80.59;100361.09;4974447;28;20435;-80
2021/11/22 00:18:21;;;;;;;45.28;19.08;;;;;;;9.09;80.48;100353.72;4982717;28;20045;-80
2021/11/22 00:21:06;;;;;;;58.97;24.13;;;;;;;9.05;79.81;100351.94;4977285;28;20053;-81
2021/11/22 00:23:51;;;;;;;55.38;22.63;;;;;;;8.99;80.18;100354.78;4978801;28;20046;-80
2021/11/22 00:26:36;;;;;;;40.25;16.52;;;;;;;9.09;81.12;100352.94;4973494;28;20059;-81
2021/11/22 00:29:20;;;;;;;41.25;18.95;;;;;;;9.02;80.27;100347.94;4970775;28;20042;-82
2021/11/22 00:32:29;;;;;;;58.42;24.52;;;;;;;9.04;80.75;100348.41;4962685;28;20042;-81
2021/11/22 00:35:33;;;;;;;49.22;22.55;;;;;;;8.97;80.02;100345.38;4982505;28;20054;-79
2021/11/22 00:38:18;;;;;;;47.25;19.20;;;;;;;8.98;80.61;100347.00;4980344;28;20058;-81
2021/11/22 00:41:04;;;;;;;42.83;17.45;;;;;;;9.02;80.60;100345.25;4978232;28;20051;-81
2021/11/22 00:43:49;;;;;;;48.35;19.17;;;;;;;8.93;79.72;100356.06;4982522;28;20046;-81
2021/11/22 00:46:34;;;;;;;59.53;25.73;;;;;;;8.94;80.60;100352.22;4980461;28;20043;-81
2021/11/22 00:49:19;;;;;;;39.63;15.98;;;;;;;8.98;80.72;100342.38;4974702;28;20046;-81
2021/11/22 00:52:04;;;;;;;55.63;18.23;;;;;;;9.07;81.37;100349.72;4963165;28;20043;-81
2021/11/22 00:54:49;;;;;;;64.90;24.98;;;;;;;8.99;80.28;100348.56;4969250;28;20061;-82
2021/11/22 00:57:34;;;;;;;42.80;17.52;;;;;;;8.98;80.55;100341.56;4980537;28;20046;-81
2021/11/22 01:00:21;;;;;;;51.08;19.35;;;;;;;8.96;80.22;100344.56;4972108;28;20039;-79
2021/11/22 01:03:05;;;;;;;55.28;23.38;;;;;;;8.96;80.26;100349.19;4961133;28;20039;-79
2021/11/22 01:05:50;;;;;;;;;;;;;;;9.00;79.80;100350.16;4960154;28;20043;-79
2021/11/22 01:08:35;;;;;;;57.10;23.48;;;;;;;8.93;80.91;100339.78;4973277;28;19914;-82
2021/11/22 01:11:20;;;;;;;;;;;;;;;9.03;81.89;100346.84;4976711;28;20445;-81
2021/11/22 01:14:06;;;;;;;50.00;20.85;;;;;;;9.00;80.96;100339.31;4959195;28;19914;-80
2021/11/22 01:16:51;;;;;;;55.15;23.08;;;;;;;9.00;81.43;100333.88;4962292;28;20517;-79
2021/11/22 01:19:35;;;;;;;47.75;18.63;;;;;;;9.02;82.29;100334.38;4970269;28;20054;-81
2021/11/22 01:22:21;;;;;;;55.55;22.63;;;;;;;8.98;80.95;100330.72;4982284;28;20050;-80
2021/11/22 01:25:09;;;;;;;52.55;20.92;;;;;;;9.01;80.70;100332.78;4964496;28;20066;-81
2021/11/22 01:27:55;;;;;;;54.50;21.55;;;;;;;9.00;81.51;100334.69;4960595;28;20051;-81
2021/11/22 01:30:40;;;;;;;56.67;23.38;;;;;;;8.94;81.08;100324.28;4967608;28;20043;-80
2021/11/22 01:33:25;;;;;;;49.60;21.60;;;;;;;8.99;81.25;100329.56;4981954;28;20050;-79
2021/11/22 01:36:10;;;;;;;38.58;18.20;;;;;;;8.99;80.83;100322.25;4973949;28;20043;-79
2021/11/22 01:38:55;;;;;;;;;;;;;;;9.04;81.00;100329.44;4977317;28;20045;-78
2021/11/22 01:41:39;;;;;;;47.65;20.85;;;;;;;9.04;81.79;100324.00;4982143;28;19914;-83
2021/11/22 01:44:24;;;;;;;42.65;18.10;;;;;;;9.02;81.25;100320.84;4982150;28;20417;-81
2021/11/22 01:47:09;;;;;;;50.53;22.55;;;;;;;9.06;81.31;100319.09;4978739;28;20039;-81
2021/11/22 01:49:53;;;;;;;45.35;18.20;;;;;;;8.96;80.66;100324.78;4979296;28;20054;-81
2021/11/22 01:52:39;;;;;;;46.45;17.05;;;;;;;8.95;80.80;100315.06;4980288;28;20425;-81
2021/11/22 01:55:27;;;;;;;53.67;21.30;;;;;;;9.07;81.91;100317.97;4976377;28;20047;-79
2021/11/22 01:58:13;;;;;;;56.25;23.48;;;;;;;9.09;81.86;100310.34;4974842;28;20065;-81
2021/11/22 02:00:58;;;;;;;53.42;19.92;;;;;;;9.09;82.27;100304.91;4969271;28;20054;-81
2021/11/22 02:03:43;;;;;;;39.05;17.52;;;;;;;9.06;81.13;100308.22;4961968;28;20050;-81
2021/11/22 02:06:27;;;;;;;41.25;16.80;;;;;;;9.06;82.05;100316.38;4974572;28;20046;-79
2021/11/22 02:09:13;;;;;;;39.95;15.68;;;;;;;9.17;81.99;100311.47;4973084;28;20043;-81
2021/11/22 02:11:59;;;;;;;52.63;22.95;;;;;;;9.19;81.95;100315.47;4961791;28;20062;-80
2021/11/22 02:14:43;;;;;;;53.47;20.95;;;;;;;9.14;81.58;100306.69;4961685;28;20047;-80
2021/11/22 02:17:28;;;;;;;35.53;16.10;;;;;;;9.11;82.18;100296.44;4968076;28;20046;-81
2021/11/22 02:20:27;;;;;;;37.67;16.25;;;;;;;9.07;81.53;100295.47;4976867;28;20042;-82
2021/11/22 02:23:12;;;;;;;47.33;19.33;;;;;;;9.05;81.82;100303.91;4955802;28;20046;-81
2021/11/22 02:25:57;;;;;;;47.55;22.13;;;;;;;9.04;81.76;100291.47;4959094;28;20054;-82
2021/11/22 02:28:41;;;;;;;36.42;14.40;;;;;;;9.09;81.97;100291.34;4961467;28;20043;-81
2021/11/22 02:31:26;;;;;;;64.03;20.92;;;;;;;9.13;82.45;100295.03;4961110;28;20039;-79
2021/11/22 02:34:12;;;;;;;;;;;;;;;9.08;81.23;100297.09;4976862;28;20434;-81
2021/11/22 02:36:57;;;;;;;57.10;21.08;;;;;;;9.05;81.90;100293.06;4963460;28;19918;-81
2021/11/22 02:39:42;;;;;;;32.33;15.32;;;;;;;9.12;82.03;100296.13;4960941;28;20043;-80
2021/11/22 02:42:30;;;;;;;53.92;17.27;;;;;;;9.17;81.88;100300.59;4958938;28;20047;-81
2021/11/22 02:45:17;;;;;;;60.53;21.30;;;;;;;9.20;81.67;100295.34;4957139;28;20497;-81
2021/11/22 02:48:02;;;;;;;44.08;21.35;;;;;;;9.19;81.51;100299.19;4960231;28;20042;-80
2021/11/22 02:50:47;;;;;;;;;;;;;;;9.17;80.55;100295.19;4975749;28;20425;-81
2021/11/22 02:53:33;;;;;;;51.38;18.65;;;;;;;9.16;80.31;100291.66;4960030;28;19918;-80
2021/11/22 02:56:17;;;;;;;42.88;18.20;;;;;;;9.19;80.36;100291.06;4954785;28;20050;-80
2021/11/22 02:59:06;;;;;;;43.42;21.13;;;;;;;9.25;80.35;100289.75;4959093;28;20058;-81
2021/11/22 03:01:51;;;;;;;40.58;19.88;;;;;;;9.17;80.30;100290.56;4967600;28;20035;-82
2021/11/22 03:04:38;;;;;;;36.95;17.13;;;;;;;9.20;80.67;100292.63;4981112;28;20046;-82
2021/11/22 03:07:22;;;;;;;44.35;21.02;;;;;;;9.21;81.11;100293.44;4982592;28;20046;-80
2021/11/22 03:10:09;;;;;;;37.95;16.65;;;;;;;9.27;81.05;100292.97;4962956;28;20054;-82
2021/11/22 03:12:54;;;;;;;42.83;19.02;;;;;;;9.28;81.58;100297.28;4960904;28;20051;-83
2021/11/22 03:15:39;;;;;;;42.30;17.70;;;;;;;9.26;81.01;100283.22;4963680;28;20058;-82
2021/11/22 03:18:24;;;;;;;33.47;15.57;;;;;;;9.26;81.41;100296.78;4975094;28;20077;-83
2021/11/22 03:21:09;;;;;;;35.30;14.77;;;;;;;9.28;81.36;100288.34;4978042;28;20047;-82
2021/11/22 03:23:54;;;;;;;41.25;17.95;;;;;;;9.32;81.39;100294.72;4981937;28;20057;-82
2021/11/22 03:26:39;;;;;;;32.35;13.98;;;;;;;9.26;82.33;100298.69;4982255;28;20047;-82
2021/11/22 03:29:24;;;;;;;36.28;16.42;;;;;;;9.26;81.93;100293.28;4981335;28;20058;-82
2021/11/22 03:32:09;;;;;;;33.42;14.55;;;;;;;9.26;81.92;100287.84;4981005;28;20039;-81
2021/11/22 03:34:55;;;;;;;;;;;;;;;9.36;81.38;100285.63;4979606;28;20047;-81
2021/11/22 03:37:39;;;;;;;;;;;;;;;9.28;82.23;100297.28;4977418;28;20397;-81
2021/11/22 03:40:24;;;;;;;42.60;17.67;;;;;;;9.25;82.29;100299.81;4977642;28;19918;-82
2021/11/22 03:45:55;;;;;;;44.22;19.35;;;;;;;9.41;81.70;100298.25;4976423;28;20062;-79
2021/11/22 03:48:39;;;;;;;31.92;14.45;;;;;;;9.36;81.53;100301.13;4974775;28;20042;-80
2021/11/22 03:51:25;;;;;;;43.58;19.10;;;;;;;9.40;81.44;100288.50;4974748;28;20501;-81
2021/11/22 03:54:11;;;;;;;42.42;19.98;;;;;;;9.42;81.63;100299.84;4976652;28;20046;-81
2021/11/22 03:56:56;;;;;;;46.60;18.70;;;;;;;9.49;81.20;100305.63;4974292;28;20050;-80
2021/11/22 03:59:41;;;;;;;36.40;15.18;;;;;;;9.52;81.13;100304.97;4978576;28;20047;-82
2021/11/22 04:02:27;;;;;;;27.85;13.93;;;;;;;9.53;80.93;100308.50;4976889;28;20054;-80
2021/11/22 04:05:11;;;;;;;43.70;19.25;;;;;;;9.54;81.16;100310.09;4973766;28;20062;-82
2021/11/22 04:07:57;;;;;;;40.80;19.83;;;;;;;9.56;81.21;100310.56;4959135;28;20409;-82
2021/11/22 04:10:42;;;;;;;44.05;19.83;;;;;;;9.55;81.03;100320.63;4959062;28;20058;-80
2021/11/22 04:13:27;;;;;;;37.75;19.33;;;;;;;9.55;81.12;100314.41;4974045;28;20497;-78
2021/11/22 04:16:12;;;;;;;31.13;15.48;;;;;;;9.57;80.97;100314.88;4977662;28;20046;-80
2021/11/22 04:18:58;;;;;;;45.38;18.55;;;;;;;9.58;80.97;100313.75;4979712;28;20054;-81
2021/11/22 04:21:42;;;;;;;;;;;;;;;9.65;80.53;100316.81;4974209;28;20058;-79
2021/11/22 04:24:28;;;;;;;43.92;19.58;;;;;;;9.64;80.66;100315.22;4977980;28;19914;-79
2021/11/22 04:27:12;;;;;;;35.70;15.55;;;;;;;9.59;80.88;100307.22;4975915;28;20047;-80
2021/11/22 04:29:58;;;;;;;37.03;16.02;;;;;;;9.55;81.07;100311.69;4974997;28;20047;-78
2021/11/22 04:32:44;;;;;;;40.80;19.10;;;;;;;9.56;80.98;100314.06;4978096;28;20569;-80
2021/11/22 04:35:29;;;;;;;37.47;15.45;;;;;;;9.57;81.30;100325.72;4975947;28;20057;-78
2021/11/22 04:38:14;;;;;;;30.83;13.80;;;;;;;9.58;81.66;100319.19;4955353;28;20046;-80
2021/11/22 04:40:59;;;;;;;35.30;16.35;;;;;;;9.57;81.45;100325.72;4975280;28;20078;-79
2021/11/22 04:43:43;;;;;;;31.60;14.57;;;;;;;9.60;81.89;100317.75;4983171;28;20039;-80
2021/11/22 04:46:29;;;;;;;37.83;16.00;;;;;;;9.54;81.93;100323.66;4982561;28;20054;-80
2021/11/22 04:49:14;;;;;;;42.75;19.88;;;;;;;9.50;82.75;100325.41;4981542;28;20039;-80
2021/11/22 04:51:59;;;;;;;46.30;20.55;;;;;;;9.51;83.20;100333.22;4979658;28;20046;-79
2021/11/22 04:54:44;;;;;;;39.20;18.35;;;;;;;9.50;82.79;100320.75;4977664;28;20409;-78
2021/11/22 04:57:28;;;;;;;33.80;14.80;;;;;;;9.56;82.22;100321.41;4975876;28;20494;-80
2021/11/22 05:00:15;;;;;;;39.97;19.83;;;;;;;9.53;82.64;100319.34;4978941;28;20053;-80
2021/11/22 05:03:00;;;;;;;40.03;18.90;;;;;;;9.44;82.93;100328.28;4977904;28;20051;-79
2021/11/22 05:05:45;;;;;;;33.45;15.63;;;;;;;9.50;83.08;100328.13;4974858;28;20043;-78
2021/11/22 05:08:30;;;;;;;32.80;15.27;;;;;;;9.51;82.60;100325.09;4979920;28;20417;-80
2021/11/22 05:11:14;;;;;;;32.35;15.70;;;;;;;9.52;82.17;100323.16;4972135;28;20578;-80
2021/11/22 05:13:59;;;;;;;36.65;16.13;;;;;;;9.51;82.08;100321.56;4970002;28;20046;-80
2021/11/22 05:16:44;;;;;;;41.55;19.00;;;;;;;9.59;81.88;100315.38;4969042;28;20043;-79
2021/11/22 05:19:32;;;;;;;36.58;18.48;;;;;;;9.59;81.69;100318.09;4975484;28;20054;-78
2021/11/22 05:22:19;;;;;;;41.53;18.33;;;;;;;9.60;81.90;100323.16;4961373;28;20035;-79
2021/11/22 05:25:05;;;;;;;39.50;19.95;;;;;;;9.58;81.77;100317.28;4963267;28;20050;-80
2021/11/22 05:27:50;;;;;;;42.58;19.58;;;;;;;9.56;81.89;100324.13;4968283;28;20062;-79
2021/11/22 05:30:36;;;;;;;44.97;20.70;;;;;;;9.60;82.22;100330.53;4966255;28;20042;-79
2021/11/22 05:33:20;;;;;;;39.22;18.75;;;;;;;9.58;81.87;100319.19;4976936;28;20037;-79
2021/11/22 05:36:05;;;;;;;35.10;18.25;;;;;;;9.58;81.97;100322.72;4978915;28;20418;-79
2021/11/22 05:38:50;;;;;;;37.58;19.52;;;;;;;9.53;82.26;100320.16;4973181;28;20042;-81
2021/11/22 05:41:35;;;;;;;;;;;;;;;9.62;82.38;100323.66;4983811;28;20098;-82
2021/11/22 05:44:20;;;;;;;41.28;18.25;;;;;;;9.61;82.53;100318.53;4967632;28;20397;-81
2021/11/22 05:47:06;;;;;;;;;;;;;;;9.67;82.32;100328.13;4975106;28;20042;-82
2021/11/22 05:49:50;;;;;;;32.80;14.45;;;;;;;9.67;82.19;100328.94;4981453;28;19914;-80
2021/11/22 05:52:38;;;;;;;42.40;19.75;;;;;;;9.67;82.30;100330.84;4997888;23;20047;-84
2021/11/22 05:55:38;;;;;;;39.10;19.73;;;;;;;9.63;82.74;100338.84;4982862;28;20437;-83
2021/11/22 05:58:22;;;;;;;39.92;18.77;;;;;;;9.58;83.72;100339.00;4983887;28;20046;-83
2021/11/22 06:01:08;;;;;;;;;;;;;;;9.70;83.24;100335.66;4984494;28;20045;-83
2021/11/22 06:03:52;;;;;;;40.22;18.38;;;;;;;9.70;83.22;100347.28;4985712;28;19913;-85
2021/11/22 06:06:37;;;;;;;;;;;;;;;9.73;82.84;100337.72;4985530;28;20423;-82
2021/11/22 06:09:22;;;;;;;41.33;22.08;;;;;;;9.72;82.74;100347.00;4982848;28;20399;-82
2021/11/22 06:12:07;;;;;;;44.08;20.40;;;;;;;9.72;82.59;100347.78;4982293;28;20073;-82
2021/11/22 06:14:53;;;;;;;36.15;14.88;;;;;;;9.73;82.39;100348.59;4967927;28;20042;-82
2021/11/22 06:17:37;;;;;;;43.83;19.30;;;;;;;9.69;82.35;100355.78;4964980;28;20051;-82
2021/11/22 06:20:22;;;;;;;28.58;14.00;;;;;;;9.72;82.29;100349.69;4999025;28;20424;-82
2021/11/22 06:23:07;;;;;;;36.47;16.42;;;;;;;9.76;82.16;100347.94;4999043;28;20042;-82
2021/11/22 06:25:52;;;;;;;;;;;;;;;9.77;82.32;100357.69;4989335;28;20511;-82
2021/11/22 06:28:37;;;;;;;40.53;18.15;;;;;;;9.75;81.96;100360.72;4968895;28;19921;-82
2021/11/22 06:31:22;;;;;;;37.90;17.77;;;;;;;9.82;81.76;100360.25;4975758;28;20555;-82
2021/11/22 06:34:07;;;;;;;28.15;14.30;;;;;;;9.77;82.26;100363.91;4979630;28;20047;-82
2021/11/22 06:36:51;;;;;;;38.85;18.63;;;;;;;9.78;82.84;100359.28;4981356;28;20058;-83
2021/11/22 06:39:37;;;;;;;45.53;20.35;;;;;;;9.77;82.72;100361.22;4980286;28;20049;-83
2021/11/22 06:42:24;;;;;;;38.17;18.02;;;;;;;9.79;82.64;100366.31;4965227;28;20518;-82
2021/11/22 06:45:09;;;;;;;34.55;18.10;;;;;;;9.80;82.21;100370.66;4999370;28;20101;-83
2021/11/22 06:47:54;;;;;;;29.58;14.25;;;;;;;9.77;83.00;100374.78;4981848;28;20050;-83
2021/11/22 06:50:39;;;;;;;;;;;;;;;9.82;82.91;100371.13;4982059;28;20053;-82
2021/11/22 06:53:24;;;;;;;37.85;17.38;;;;;;;9.83;82.73;100373.53;4977983;28;19921;-83
2021/11/22 06:56:09;;;;;;;24.77;13.13;;;;;;;9.83;83.08;100376.22;4977204;28;20053;-83
2021/11/22 06:58:54;;;;;;;35.97;18.67;;;;;;;9.81;82.65;100374.94;4982126;28;20047;-83
2021/11/22 07:01:39;;;;;;;27.10;15.48;;;;;;;9.77;82.58;100380.22;4980028;28;20050;-82
2021/11/22 07:04:24;;;;;;;33.05;14.85;;;;;;;9.86;82.52;100385.66;4976256;28;20062;-84
2021/11/22 07:07:09;;;;;;;35.10;13.88;;;;;;;9.82;82.24;100381.97;4980664;28;20049;-81
2021/11/22 07:09:54;;;;;;;31.77;14.75;;;;;;;9.92;82.04;100389.81;4977167;28;20403;-81
2021/11/22 07:12:39;;;;;;;30.65;14.57;;;;;;;9.85;81.90;100393.00;4971693;28;20049;-82
2021/11/22 07:15:24;;;;;;;33.75;15.70;;;;;;;9.69;82.97;100391.06;4979092;28;20073;-77
2021/11/22 07:18:08;;;;;;;32.67;13.80;;;;;;;9.48;84.36;100406.34;4965211;28;20529;-77
2021/11/22 07:20:53;;;;;;;38.97;18.98;;;;;;;9.16;86.20;100405.59;4973634;28;20053;-77
2021/11/22 07:23:38;;;;;;;31.25;15.77;;;;;;;9.02;87.87;100413.03;4969313;28;20039;-78
2021/11/22 07:26:23;;;;;;;31.30;16.27;;;;;;;9.11;87.97;100411.16;4973196;28;20059;-78
2021/11/22 07:29:09;;;;;;;32.00;15.43;;;;;;;9.22;87.90;100412.50;4968820;28;20046;-78
2021/11/22 07:31:54;;;;;;;41.15;22.08;;;;;;;9.21;87.70;100423.66;4976693;28;20046;-77
2021/11/22 07:34:40;;;;;;;30.88;15.40;;;;;;;9.35;86.89;100414.28;4969192;28;20054;-78
2021/11/22 07:37:25;;;;;;;42.03;19.48;;;;;;;9.43;85.82;100412.72;4967183;28;20047;-78
2021/11/22 07:40:10;;;;;;;40.05;19.92;;;;;;;9.42;86.32;100409.22;4974439;28;20043;-78
2021/11/22 07:42:55;;;;;;;36.00;16.08;;;;;;;9.48;86.57;100409.06;4973673;28;20035;-78
2021/11/22 07:45:41;;;;;;;47.00;21.23;;;;;;;9.52;85.82;100399.97;4962229;28;20039;-79
2021/11/22 07:48:28;;;;;;;43.53;20.50;;;;;;;9.77;85.38;100406.56;4960361;28;20058;-78
2021/11/22 07:51:12;;;;;;;42.75;21.02;;;;;;;9.96;84.03;100409.78;4968161;28;20039;-78
2021/11/22 07:53:57;;;;;;;41.50;16.23;;;;;;;9.88;84.50;100408.66;4975819;28;20045;-78
2021/11/22 07:56:43;;;;;;;43.90;18.83;;;;;;;10.01;85.26;100415.06;4973234;28;20047;-78
2021/11/22 07:59:28;;;;;;;49.85;21.60;;;;;;;10.01;85.27;100416.97;4978262;28;20046;-79
2021/11/22 08:02:13;;;;;;;40.63;15.93;;;;;;;10.02;84.63;100413.13;4979022;28;20038;-79
2021/11/22 08:04:58;;;;;;;34.40;17.38;;;;;;;10.05;84.06;100413.31;4981270;28;20050;-79
2021/11/22 08:07:42;;;;;;;49.47;20.55;;;;;;;10.08;84.27;100428.19;4978298;28;20047;-79
2021/11/22 08:10:29;;;;;;;34.85;15.57;;;;;;;10.10;84.80;100420.50;4966536;28;20406;-80
2021/11/22 08:13:13;;;;;;;49.10;21.10;;;;;;;10.12;84.88;100427.22;4976686;28;20054;-80
2021/11/22 08:16:01;;;;;;;37.20;16.73;;;;;;;10.16;84.89;100430.13;4976548;28;20046;-81
2021/11/22 08:18:46;;;;;;;48.70;20.65;;;;;;;10.16;84.78;100436.34;4982997;28;20505;-81
2021/11/22 08:21:31;;;;;;;37.65;15.02;;;;;;;10.19;84.74;100443.06;4981323;28;20050;-80
2021/11/22 08:24:16;;;;;;;32.67;14.65;;;;;;;10.21;84.70;100448.97;4985075;28;20072;-79
2021/11/22 08:27:01;;;;;;;46.97;21.90;;;;;;;10.23;84.66;100454.91;4982265;28;20055;-79
2021/11/22 08:29:46;;;;;;;49.15;20.05;;;;;;;10.27;84.66;100448.50;4982229;28;20034;-80
2021/11/22 08:32:31;;;;;;;41.95;19.77;;;;;;;10.29;84.42;100451.72;4983267;28;20055;-80
2021/11/22 08:35:17;;;;;;;;;;;;;;;10.35;84.64;100455.06;4984002;28;20050;-80
2021/11/22 08:38:02;;;;;;;48.97;20.75;;;;;;;10.35;84.51;100454.28;4981404;28;19921;-80
2021/11/22 08:40:47;;;;;;;37.15;18.50;;;;;;;10.39;84.31;100461.47;4976649;28;20043;-80
2021/11/22 08:43:32;;;;;;;68.40;23.95;;;;;;;10.41;83.86;100466.59;4975599;28;20050;-79
2021/11/22 08:46:17;;;;;;;44.33;21.20;;;;;;;10.42;84.07;100460.00;4973933;28;20039;-80
2021/11/22 08:49:03;;;;;;;39.03;16.10;;;;;;;10.46;84.45;100467.22;4985376;28;20042;-79
2021/11/22 08:51:48;;;;;;;43.50;20.35;;;;;;;10.48;84.17;100461.47;4982904;28;20039;-79
2021/11/22 08:54:33;;;;;;;;;;;;;;;10.54;84.53;100465.63;4970404;28;20051;-80
2021/11/22 08:57:18;;;;;;;48.88;20.75;;;;;;;10.57;84.62;100473.13;4976023;28;19913;-79
2021/11/22 09:00:12;;;;;;;48.10;20.35;;;;;;;10.61;84.80;100474.91;4972854;28;20043;-79
2021/11/22 09:02:57;;;;;;;45.75;18.42;;;;;;;10.65;84.86;100481.28;4976360;28;20425;-79
2021/11/22 09:05:42;;;;;;;34.70;16.27;;;;;;;10.70;84.96;100483.03;4983430;28;20050;-79
2021/11/22 09:08:27;;;;;;;36.13;18.55;;;;;;;10.73;84.89;100485.91;4980863;28;20035;-80
2021/11/22 09:11:13;;;;;;;36.80;14.02;;;;;;;10.77;85.00;100488.00;4977464;28;20047;-79
2021/11/22 09:13:58;;;;;;;44.83;20.33;;;;;;;10.79;84.77;100491.19;4982328;28;20059;-79
2021/11/22 09:16:43;;;;;;;40.47;18.85;;;;;;;10.80;84.90;100488.16;4977279;28;20051;-79
2021/11/22 09:19:28;;;;;;;34.38;14.75;;;;;;;10.82;84.93;100496.78;4964967;28;20039;-79
2021/11/22 09:22:13;;;;;;;29.20;13.75;;;;;;;10.83;84.67;100495.66;4976726;28;20505;-79
2021/11/22 09:24:57;;;;;;;30.25;14.75;;;;;;;10.86;84.95;100495.03;4973031;28;20043;-79
2021/11/22 09:27:43;;;;;;;43.50;19.98;;;;;;;10.88;84.62;100503.66;4977974;28;20034;-79
2021/11/22 09:30:28;;;;;;;;;;;;;;;10.91;84.57;100511.19;4984048;28;20035;-79
2021/11/22 09:33:14;;;;;;;42.88;18.60;;;;;;;10.93;84.79;100510.84;4977972;28;19914;-79
2021/11/22 09:35:59;;;;;;;41.70;18.23;;;;;;;10.94;84.46;100507.00;4971615;28;20042;-79
2021/11/22 09:38:44;;;;;;;38.83;18.38;;;;;;;10.96;84.60;100507.50;4981279;28;20042;-79
2021/11/22 09:41:30;;;;;;;44.95;19.75;;;;;;;10.99;84.63;100512.28;4973146;28;20042;-79
2021/11/22 09:44:17;;;;;;;47.78;19.63;;;;;;;11.00;84.52;100503.81;4966912;28;20043;-79
2021/11/22 09:47:03;;;;;;;38.72;19.52;;;;;;;11.03;84.28;100513.22;4974015;28;20509;-79
2021/11/22 09:49:48;;;;;;;39.88;19.27;;;;;;;11.04;84.85;100517.56;4979078;28;20498;-78
2021/11/22 09:52:34;;;;;;;30.83;14.35;;;;;;;11.06;84.09;100513.41;4958947;28;20039;-79
2021/11/22 09:55:19;;;;;;;44.47;19.25;;;;;;;11.07;84.17;100523.13;4971422;28;20068;-79
2021/11/22 09:58:08;;;;;;;43.40;20.27;;;;;;;11.15;84.41;100521.53;4980065;28;20047;-79
2021/11/22 10:00:56;;;;;;;41.65;19.17;;;;;;;11.15;84.20;100522.34;4974222;28;20323;-79
2021/11/22 10:03:42;;;;;;;43.55;20.38;;;;;;;11.17;83.50;100522.03;4981090;28;20043;-79
2021/11/22 10:06:27;;;;;;;39.47;18.45;;;;;;;11.17;83.81;100524.75;4978634;28;20055;-78
2021/11/22 10:09:37;;;;;;;26.05;13.85;;;;;;;11.22;84.05;100512.88;4976998;28;20398;-79
2021/11/22 10:12:25;;;;;;;52.22;19.85;;;;;;;11.23;83.78;100511.75;4978588;28;20043;-79
2021/11/22 10:15:11;;;;;;;40.17;19.85;;;;;;;11.23;84.00;100503.56;4977428;28;20042;-79
2021/11/22 10:17:56;;;;;;;40.55;18.30;;;;;;;11.26;83.85;100503.75;4976957;28;20051;-79
2021/11/22 10:20:41;;;;;;;33.35;13.88;;;;;;;11.25;83.79;100504.06;4979973;28;20489;-79
2021/11/22 10:23:29;;;;;;;38.55;17.45;;;;;;;11.27;83.98;100501.81;4967569;28;20043;-79
2021/11/22 10:26:15;;;;;;;43.45;18.35;;;;;;;11.28;84.36;100506.94;4976532;28;20043;-79
2021/11/22 10:29:00;;;;;;;42.40;18.58;;;;;;;11.29;84.00;100510.44;4978790;28;20047;-79
2021/11/22 10:31:49;;;;;;;40.15;18.52;;;;;;;11.33;83.75;100509.47;4972979;28;20051;-79
2021/11/22 10:34:38;;;;;;;42.60;21.27;;;;;;;11.33;83.98;100504.03;4969984;28;20313;-79
2021/11/22 10:37:23;;;;;;;37.10;17.77;;;;;;;11.34;84.05;100502.91;4972233;28;20040;-79
2021/11/22 10:40:16;;;;;;;36.88;16.08;;;;;;;11.39;84.17;100501.94;4969979;28;20513;-79
2021/11/22 10:43:02;;;;;;;38.22;17.23;;;;;;;11.41;84.16;100502.41;4976287;28;20038;-79
2021/11/22 10:45:51;;;;;;;37.33;17.90;;;;;;;11.43;83.97;100500.94;4980321;28;20038;-79
2021/11/22 10:48:37;;;;;;;40.47;17.52;;;;;;;11.44;83.95;100501.75;4978203;28;20035;-79
2021/11/22 10:51:27;;;;;;;40.97;17.98;;;;;;;11.45;84.03;100501.44;4973210;28;20054;-79
2021/11/22 10:54:18;;;;;;;33.40;17.92;;;;;;;11.46;83.90;100488.63;4980793;28;20039;-79
2021/11/22 10:57:11;;;;;;;41.97;19.42;;;;;;;11.45;83.92;100487.81;4962017;28;20051;-79
2021/11/22 10:59:56;;;;;;;41.38;18.45;;;;;;;11.46;83.71;100483.19;4972812;28;20042;-78
2021/11/22 11:02:42;;;;;;;28.00;13.15;;;;;;;11.49;83.43;100483.31;4972226;28;20054;-78
2021/11/22 11:05:38;;;;;;;48.95;18.73;;;;;;;11.51;83.70;100491.16;4954362;28;20051;-78
2021/11/22 11:08:29;;;;;;;45.72;21.98;;;;;;;11.52;83.34;100485.41;4971117;28;20659;-78
2021/11/22 11:11:15;;;;;;;40.55;19.17;;;;;;;11.53;83.43;100483.44;4966793;28;20047;-78
2021/11/22 11:14:07;;;;;;;42.65;18.60;;;;;;;11.56;83.41;100482.81;4973807;28;20426;-77
2021/11/22 11:16:53;;;;;;;38.65;17.55;;;;;;;11.56;83.79;100482.81;4962179;28;20039;-78
2021/11/22 11:19:40;;;;;;;40.10;19.88;;;;;;;11.57;83.70;100484.41;4976271;28;20509;-77
2021/11/22 11:22:27;;;;;;;41.00;20.05;;;;;;;11.60;83.81;100494.66;4968707;28;20051;-77
2021/11/22 11:25:13;;;;;;;48.63;19.10;;;;;;;11.58;83.88;100483.28;4977254;28;20047;-78
2021/11/22 11:27:58;;;;;;;48.20;21.65;;;;;;;11.55;83.91;100482.00;4972207;28;20038;-78
2021/11/22 11:30:43;;;;;;;44.90;20.08;;;;;;;11.61;84.03;100484.56;4969135;28;20042;-77
2021/11/22 11:33:28;;;;;;;;;;;;;;;11.65;84.28;100488.22;4969695;28;20039;-77
2021/11/22 11:36:27;;;;;;;47.10;20.90;;;;;;;11.66;84.68;100489.81;4975783;28;19917;-77
2021/11/22 11:39:27;;;;;;;47.88;20.98;;;;;;;11.64;84.87;100481.97;4972962;28;20401;-77
2021/11/22 11:42:34;;;;;;;49.58;22.63;;;;;;;11.66;85.30;100493.34;4968345;28;20043;-78
2021/11/22 11:45:30;;;;;;;47.30;22.52;;;;;;;11.69;85.38;100486.44;4959824;28;20043;-78
2021/11/22 11:48:28;;;;;;;52.67;22.58;;;;;;;11.71;85.39;100484.97;4962881;28;20509;-78
2021/11/22 11:51:19;;;;;;;51.15;22.40;;;;;;;11.72;85.76;100488.50;4978743;28;20039;-77
2021/11/22 11:54:07;;;;;;;43.42;21.45;;;;;;;11.76;85.98;100481.31;4975717;28;20042;-77
2021/11/22 11:56:56;;;;;;;51.97;22.77;;;;;;;11.75;85.88;100480.50;4980196;28;20501;-77
2021/11/22 11:59:45;;;;;;;49.67;23.75;;;;;;;11.77;86.36;100480.97;4975195;28;20050;-77
2021/11/22 12:02:33;;;;;;;48.45;22.20;;;;;;;11.79;86.29;100481.44;4974246;28;20047;-78
2021/11/22 12:05:18;;;;;;;47.58;21.27;;;;;;;11.78;86.15;100474.41;4979981;28;20047;-78
2021/11/22 12:08:19;;;;;;;48.08;21.95;;;;;;;11.83;86.38;100482.41;4978452;28;20039;-77
2021/11/22 12:11:05;;;;;;;48.58;24.05;;;;;;;11.82;85.60;100485.44;4981474;28;20035;-78
2021/11/22 12:13:57;;;;;;;48.20;22.63;;;;;;;11.82;85.52;100474.53;4979415;28;20038;-77
2021/11/22 12:16:44;;;;;;;45.72;22.50;;;;;;;11.78;85.33;100482.59;4972463;28;20042;-77
2021/11/22 12:19:42;;;;;;;48.72;24.70;;;;;;;11.83;85.09;100490.56;4975563;28;20043;-78
2021/11/22 12:22:43;;;;;;;44.20;21.10;;;;;;;11.83;85.41;100485.13;4971734;28;20054;-78
2021/11/22 12:25:44;;;;;;;51.53;22.58;;;;;;;11.86;85.30;100480.94;4970698;28;20039;-77
2021/11/22 12:28:31;;;;;;;46.95;23.88;;;;;;;11.87;85.17;100494.22;4973738;28;20289;-78
2021/11/22 12:31:25;;;;;;;50.85;23.52;;;;;;;11.87;85.05;100482.53;4968834;28;20039;-77
2021/11/22 12:34:12;;;;;;;47.28;24.13;;;;;;;11.86;85.60;100470.84;4994873;23;20043;-77
2021/11/22 12:36:57;;;;;;;46.75;24.08;;;;;;;11.90;85.79;100470.97;4971290;28;20035;-77
2021/11/22 12:39:43;;;;;;;36.22;19.27;;;;;;;11.93;86.28;100464.88;4965906;28;20047;-77
2021/11/22 12:42:28;;;;;;;50.63;25.77;;;;;;;11.91;86.31;100467.91;4959640;28;20047;-77
2021/11/22 12:45:14;;;;;;;45.90;25.85;;;;;;;11.95;86.54;100476.22;4965386;28;20046;-76
2021/11/22 12:48:25;;;;;;;39.65;20.02;;;;;;;11.97;86.61;100466.59;4973209;28;20410;-77
2021/11/22 12:51:16;;;;;;;56.60;28.90;;;;;;;11.98;86.78;100479.09;4978187;28;20501;-76